Terminal Aerodrome Forecast
Issued by NWS

Home | Current Version | Previous Version | Text Only | Print | Product List | Glossary On
Versions: 1 2 3 4 5 6 7 8 9 10 11 12
777
FTUS45 KRIW 080528
TAFCPR
TAF
KCPR 080528Z 0806/0906 24011KT P6SM BKN080
     FM081500 24015G25KT P6SM FEW080 SCT250
     FM090000 22012KT P6SM SCT250=

USA.gov is the U.S. government's official web portal to all federal, state and local government web resources and services.